Time,TemperatureF,DewpointF,PressureIn,WindDirection,WindDirectionDegrees,WindSpeedMPH,WindSpeedGustMPH,Humidity,HourlyPrecipIn,Conditions,Clouds,dailyrainin,SoftwareType,DateUTC
2013-07-12 00:00:00,49.0,-99.9,44.89,North,-999,-999.0,-999.0,-999,-99.99,,,-99.99,,2013-07-12 07:00:00,
2013-07-12 01:00:00,48.0,-99.9,44.89,NE,35,0.0,2.0,-999,-99.99,,,-99.99,,2013-07-12 08:00:00,
2013-07-12 01:53:00,48.0,-99.9,44.89,NE,35,0.0,2.0,-999,-99.99,,,-99.99,,2013-07-12 08:53:00,
2013-07-12 02:00:00,47.0,-99.9,44.89,West,273,0.0,2.0,-999,-99.99,,,-99.99,,2013-07-12 09:00:00,
2013-07-12 03:00:00,45.0,-99.9,44.89,SW,231,0.0,1.0,-999,-99.99,,,-99.99,,2013-07-12 10:00:00,
2013-07-12 04:00:00,47.0,-99.9,44.89,SW,230,0.0,1.0,-999,-99.99,,,0.00,,2013-07-12 11:00:00,
2013-07-12 05:00:00,44.0,-99.9,44.89,SW,231,0.0,0.0,-999,-99.99,,,0.00,,2013-07-12 12:00:00,
2013-07-12 06:00:00,45.0,-99.9,44.89,SW,230,0.0,1.0,-999,-99.99,,,0.00,,2013-07-12 13:00:00,
2013-07-12 07:00:00,52.0,-99.9,44.89,NNW,343,0.0,2.0,-999,-99.99,,,0.00,,2013-07-12 14:00:00,
2013-07-12 08:00:00,55.0,-99.9,44.89,East,87,1.0,5.0,-999,-99.99,,,0.00,,2013-07-12 15:00:00,
2013-07-12 09:00:00,56.0,-99.9,44.89,East,101,1.0,4.0,-999,-99.99,,,0.00,,2013-07-12 16:00:00,
2013-07-12 10:00:00,57.0,-99.9,44.89,WNW,302,1.0,5.0,-999,-99.99,,,0.00,,2013-07-12 17:00:00,
2013-07-12 10:57:00,57.0,-99.9,44.89,WNW,302,1.0,5.0,-999,-99.99,,,0.00,,2013-07-12 17:57:00,
2013-07-12 11:00:00,60.0,-99.9,44.89,NNW,336,2.0,6.0,-999,-99.99,,,0.00,,2013-07-12 18:00:00,
2013-07-12 12:00:00,62.0,-99.9,44.89,NNW,341,3.0,9.0,-999,-99.99,,,0.00,,2013-07-12 19:00:00,
2013-07-12 13:00:00,61.0,-99.9,44.89,North,357,2.0,8.0,-999,-99.99,,,0.00,,2013-07-12 20:00:00,
2013-07-12 14:00:00,61.0,-99.9,44.89,North,2,2.0,5.0,-999,-99.99,,,0.00,,2013-07-12 21:00:00,
2013-07-12 15:00:00,65.0,-99.9,44.89,North,360,3.0,8.0,-999,-99.99,,,0.00,,2013-07-12 22:00:00,
2013-07-12 16:00:00,58.0,-99.9,44.89,NNW,340,2.0,6.0,-999,-99.99,,,0.00,,2013-07-12 23:00:00,
2013-07-12 16:58:00,58.0,-99.9,44.89,NNW,340,2.0,6.0,-999,-99.99,,,0.00,,2013-07-12 23:58:00,
2013-07-12 17:00:00,53.0,-99.9,44.89,NW,315,3.0,7.0,-999,-99.99,,,0.00,,2013-07-13 00:00:00,
2013-07-12 18:00:00,50.0,-99.9,44.89,WNW,302,1.0,4.0,-999,-99.99,,,0.00,,2013-07-13 01:00:00,
2013-07-12 18:58:00,50.0,-99.9,44.89,WNW,302,1.0,4.0,-999,-99.99,,,0.00,,2013-07-13 01:58:00,
2013-07-12 19:00:00,49.0,-99.9,44.89,SW,231,1.0,3.0,-999,-99.99,,,-99.99,,2013-07-13 02:00:00,
2013-07-12 19:57:00,49.0,-99.9,44.89,SW,231,1.0,3.0,-999,-99.99,,,-99.99,,2013-07-13 02:57:00,
2013-07-12 20:00:00,49.0,-99.9,44.89,SSW,212,1.0,3.0,-999,-99.99,,,0.00,,2013-07-13 03:00:00,
2013-07-12 21:00:00,49.0,-99.9,44.89,SSW,212,0.0,2.0,-999,-99.99,,,0.00,,2013-07-13 04:00:00,
2013-07-12 23:00:00,46.0,-99.9,44.89,SSW,212,0.0,2.0,-999,-99.99,,,0.00,,2013-07-13 06:00:00,
2013-07-12 23:52:00,46.0,-99.9,44.89,SSW,212,0.0,2.0,-999,-99.99,,,0.00,,2013-07-13 06:52:00,